Time;durP1;ratioP1;P1;durP2;ratioP2;P2;SDS_P1;SDS_P2;PMS_P1;PMS_P2;Temp;Humidity;BMP_temperature;BMP_pressure;BME280_temperature;BME280_humidity;BME280_pressure;Samples;Min_cycle;Max_cycle;Signal;HPM_P1;HPM_P2
2021/10/16 21:47:16;;;;;;;63.33;41.70;;;;;;;;;;6159153;22;1437512;-72
2021/10/16 21:49:43;;;;;;;54.78;38.15;;;281.60;2048.00;;;;;;6213169;23;20370;-73
2021/10/16 21:52:08;;;;;;;56.30;38.38;;;281.70;2048.00;;;;;;6212299;23;20008;-74
2021/10/16 21:54:34;;;;;;;61.25;39.45;;;281.70;2022.40;;;;;;6215045;23;20000;-74
2021/10/16 21:57:00;;;;;;;61.30;38.65;;;281.70;2048.00;;;;;;6215410;23;20024;-74
2021/10/16 21:59:25;;;;;;;101.25;65.10;;;281.70;2022.40;;;;;;6212644;23;20004;-74
2021/10/16 22:01:59;;;;;;;63.08;41.45;;;281.70;2048.00;;;;;;6213657;23;20013;-73
2021/10/16 22:04:25;;;;;;;59.60;37.40;;;281.70;2048.00;;;;;;6215168;23;20004;-75
2021/10/16 22:06:51;;;;;;;83.38;56.63;;;281.70;2048.00;;;;;;6215071;23;20395;-74
2021/10/16 22:09:16;;;;;;;82.97;55.25;;;281.70;2048.00;;;;;;6215186;23;20036;-74
2021/10/16 22:11:42;;;;;;;78.93;51.25;;;281.70;2048.00;;;;;;6213666;23;20415;-72
2021/10/16 22:14:08;;;;;;;79.43;50.58;;;281.80;2048.00;;;;;;6215068;23;20024;-73
2021/10/16 22:16:34;;;;;;;61.88;41.33;;;281.70;2073.60;;;;;;6215176;23;20005;-74
2021/10/16 22:19:00;;;;;;;55.58;36.85;;;281.70;2048.00;;;;;;6215050;23;20398;-74
2021/10/16 22:21:25;;;;;;;57.65;36.45;;;281.70;2073.60;;;;;;6214815;23;20005;-73
2021/10/16 22:23:51;;;;;;;52.75;35.53;;;281.70;2073.60;;;;;;6215086;23;20064;-74
2021/10/16 22:26:17;;;;;;;50.55;33.42;;;281.80;2048.00;;;;;;6214961;23;20000;-74
2021/10/16 22:28:43;;;;;;;60.78;36.50;;;281.80;2048.00;;;;;;6214913;23;20005;-74
2021/10/16 22:31:09;;;;;;;64.10;38.13;;;281.90;2048.00;;;;;;6215296;23;20343;-74
2021/10/16 22:33:35;;;;;;;48.25;32.70;;;281.90;2048.00;;;;;;6214959;23;20001;-75
2021/10/16 22:36:00;;;;;;;52.88;37.50;;;281.80;2048.00;;;;;;6214876;23;20005;-72
2021/10/16 22:38:26;;;;;;;52.38;34.42;;;281.80;2048.00;;;;;;6215074;23;20032;-70
2021/10/16 22:40:52;;;;;;;58.47;34.22;;;281.90;2048.00;;;;;;6214889;23;20007;-72
2021/10/16 22:43:19;;;;;;;51.45;35.20;;;281.80;2048.00;;;;;;6214851;23;20058;-77
2021/10/16 22:45:45;;;;;;;52.78;35.05;;;281.90;2073.60;;;;;;6215162;23;20007;-81
2021/10/16 22:48:11;;;;;;;57.45;35.28;;;281.90;2048.00;;;;;;6185047;23;20017;-73
2021/10/16 22:50:37;;;;;;;55.83;37.50;;;281.90;2048.00;;;;;;6184958;23;20071;-67
2021/10/16 22:53:03;;;;;;;68.68;41.97;;;;;;;;;;6185476;23;20447;-71
2021/10/16 22:55:36;;;;;;;52.75;34.28;;;282.50;2022.40;;;;;;6184947;23;20009;-72
2021/10/16 22:58:11;;;;;;;56.22;33.47;;;307.50;1996.80;;;;;;6186960;23;20013;-71
2021/10/16 23:00:37;;;;;;;56.25;33.72;;;307.80;1945.60;;;;;;6186907;23;20432;-74
2021/10/16 23:03:03;;;;;;;46.95;29.40;;;307.70;1945.60;;;;;;6186835;23;20013;-74
2021/10/16 23:05:29;;;;;;;47.22;29.30;;;307.30;1996.80;;;;;;6186793;23;20001;-74
2021/10/16 23:07:54;;;;;;;51.10;29.45;;;307.60;1971.20;;;;;;6187338;23;20005;-73
2021/10/16 23:10:20;;;;;;;44.03;32.63;;;307.50;1971.20;;;;;;6186886;23;20005;-71
2021/10/16 23:12:47;;;;;;;43.15;31.10;;;282.50;1996.80;;;;;;6184329;23;20015;-72
2021/10/16 23:15:13;;;;;;;77.90;40.97;;;282.40;1996.80;;;;;;6186801;23;20051;-71
2021/10/16 23:17:40;;;;;;;72.30;40.47;;;282.50;1996.80;;;;;;6186646;23;20444;-70
2021/10/16 23:20:09;;;;;;;55.42;33.03;;;307.30;1996.80;;;;;;6186791;23;20016;-72
2021/10/16 23:22:35;;;;;;;65.60;40.70;;;282.40;1996.80;;;;;;6186656;23;20013;-70
2021/10/16 23:25:00;;;;;;;37.53;25.83;;;307.30;1996.80;;;;;;6186852;23;20002;-72
2021/10/16 23:27:26;;;;;;;40.83;23.33;;;307.30;1996.80;;;;;;6186826;23;20009;-71
2021/10/16 23:29:52;;;;;;;39.65;22.83;;;282.50;1996.80;;;;;;6186705;23;20005;-71
2021/10/16 23:32:18;;;;;;;65.03;35.25;;;282.30;2022.40;;;;;;6186963;23;20012;-70
2021/10/16 23:34:44;;;;;;;40.42;26.30;;;282.30;2022.40;;;;;;6186500;23;20328;-70
2021/10/16 23:37:10;;;;;;;41.03;27.00;;;282.30;2048.00;;;;;;6184588;23;20440;-70
2021/10/16 23:39:36;;;;;;;39.17;27.52;;;282.50;1996.80;;;;;;6186628;23;20047;-70
2021/10/16 23:42:02;;;;;;;44.83;28.38;;;282.30;2022.40;;;;;;6186512;23;20033;-71
2021/10/16 23:44:28;;;;;;;37.97;27.35;;;282.20;2048.00;;;;;;6186433;23;20005;-71
2021/10/16 23:46:54;;;;;;;47.72;32.50;;;282.30;2022.40;;;;;;6186324;23;20392;-71
2021/10/16 23:49:20;;;;;;;43.63;28.25;;;282.30;2048.00;;;;;;6185947;23;20001;-72
2021/10/16 23:51:46;;;;;;;60.42;39.20;;;282.30;2048.00;;;;;;6186247;23;20005;-71
2021/10/16 23:54:12;;;;;;;43.30;29.88;;;282.40;2048.00;;;;;;6186321;23;20008;-71
2021/10/16 23:56:38;;;;;;;41.28;28.75;;;282.30;2048.00;;;;;;6186777;23;20075;-70
2021/10/16 23:59:04;;;;;;;44.45;27.98;;;282.30;2048.00;;;;;;6186271;23;20428;-71
